EGAE/LDY METAR and TAF weather

Enter ICAO airport designator
Station Type Date Time Source
EGAE METAR 2022/09/28 17:50 UTC NOAA

EGAE 281750Z 34009KT 9999 VCSH FEW014 SCT038 12/10 Q1005


Station Type Date Time Source
EGAE Decoded METAR 2022/09/28 17:50 UTC NOAA

Eglinton / Londonderr, United Kingdom (EGAE) 55-03N 007-09W
Sep 28, 2022 - 01:50 PM EDT / 2022.09.28 1750 UTC
Wind: from the NNW (340 degrees) at 10 MPH (9 KT):0
Visibility: greater than 7 mile(s):0
Sky conditions: partly cloudy
Weather: showers in the vicinity
Temperature: 53 F (12 C)
Dew Point: 50 F (10 C)
Relative Humidity: 87%
Pressure (altimeter): 29.68 in. Hg (1005 hPa)
ob: EGAE 281750Z 34009KT 9999 VCSH FEW014 SCT038 12/10 Q1005
cycle: 18

Station Type Date Time Source
EGAE TAF UTC NOAA

Error!

Example: see airport list